Time;durP1;ratioP1;P1;durP2;ratioP2;P2;SDS_P1;SDS_P2;PMS_P1;PMS_P2;Temp;Humidity;BMP_temperature;BMP_pressure;BME280_temperature;BME280_humidity;BME280_pressure;Samples;Min_cycle;Max_cycle;Signal;HPM_P1;HPM_P2
2024/01/26 00:02:21;;;;;;;12.00;7.80;;;;;;;-147.86;100.00;53790.99;105649;1256;60572;-60
2024/01/26 00:04:49;;;;;;;13.20;8.20;;;;;;;-147.86;100.00;54137.31;105643;1259;60432;-58
2024/01/26 00:07:17;;;;;;;10.40;7.40;;;;;;;-147.86;100.00;54344.24;105719;1253;72582;-59
2024/01/26 00:09:45;;;;;;;12.20;7.50;;;;;;;-147.86;100.00;54447.13;105688;1258;64367;-59
2024/01/26 00:12:13;;;;;;;10.30;8.30;;;;;;;-147.86;100.00;54254.32;105645;1256;71426;-58
2024/01/26 00:14:40;;;;;;;13.50;8.90;;;;;;;-147.86;100.00;53961.41;105637;1259;60615;-56
2024/01/26 00:17:08;;;;;;;12.50;9.60;;;;;;;-147.86;100.00;54373.70;105623;1259;60354;-58
2024/01/26 00:19:36;;;;;;;13.30;8.80;;;;;;;-147.86;100.00;54513.11;105677;1253;72571;-59
2024/01/26 00:22:03;;;;;;;15.40;8.90;;;;;;;-147.86;100.00;54412.57;105671;1253;64317;-58
2024/01/26 00:24:31;;;;;;;14.00;8.60;;;;;;;-147.86;100.00;54184.43;105696;1258;72331;-57
2024/01/26 00:26:59;;;;;;;12.30;8.70;;;;;;;-147.86;100.00;54337.18;105762;1254;60544;-57
2024/01/26 00:29:27;;;;;;;11.80;9.00;;;;;;;-147.86;100.00;54660.76;105833;1254;60349;-57
2024/01/26 00:31:55;;;;;;;14.80;8.50;;;;;;;-147.86;100.00;54709.06;105796;1253;72559;-55
2024/01/26 00:34:23;;;;;;;13.20;8.20;;;;;;;-147.86;100.00;54937.24;105792;1258;63260;-58
2024/01/26 00:36:51;;;;;;;11.30;8.00;;;;;;;-147.86;100.00;54846.91;105835;1258;70380;-57
2024/01/26 00:39:18;;;;;;;17.60;9.50;;;;;;;-147.86;100.00;54589.29;105743;1253;60557;-58
2024/01/26 00:41:47;;;;;;;13.20;9.30;;;;;;;-147.86;100.00;54841.02;105764;1257;60486;-58
2024/01/26 00:44:14;;;;;;;12.90;8.20;;;;;;;-147.86;100.00;55167.00;105763;1253;72558;-57
2024/01/26 00:46:42;;;;;;;12.80;9.00;;;;;;;-147.86;100.00;55158.36;105782;1253;63259;-56
2024/01/26 00:49:10;;;;;;;12.20;8.10;;;;;;;-147.86;100.00;55390.89;105828;1253;72664;-56
2024/01/26 00:51:38;;;;;;;14.20;8.10;;;;;;;-147.86;100.00;55639.52;105820;1255;60546;-57
2024/01/26 00:54:06;;;;;;;11.80;7.80;;;;;;;-147.86;100.00;55350.43;105846;1259;60536;-58
2024/01/26 00:56:33;;;;;;;11.50;7.40;;;;;;;-147.86;100.00;55394.02;105776;1258;72547;-59
2024/01/26 00:59:01;;;;;;;13.10;7.50;;;;;;;-147.86;100.00;55240.05;105796;1253;63870;-59
2024/01/26 01:01:29;;;;;;;10.70;7.80;;;;;;;-147.86;100.00;54742.06;105782;1257;70879;-58
2024/01/26 01:03:56;;;;;;;13.50;8.70;;;;;;;-147.86;100.00;54684.32;105791;1253;60501;-59
2024/01/26 01:06:24;;;;;;;11.40;7.20;;;;;;;-147.86;100.00;54906.61;105758;1259;60449;-59
2024/01/26 01:08:52;;;;;;;10.90;7.80;;;;;;;-147.86;100.00;54462.45;105775;1258;73283;-59
2024/01/26 01:11:20;;;;;;;10.30;7.50;;;;;;;-147.86;100.00;54176.19;105750;1259;63131;-58
2024/01/26 01:13:48;;;;;;;8.50;7.50;;;;;;;-147.86;100.00;54793.89;105813;1253;71470;-56
2024/01/26 01:16:17;;;;;;;10.80;7.90;;;;;;;-147.86;100.00;54968.27;105773;1259;60613;-59
2024/01/26 01:18:46;;;;;;;11.20;7.60;;;;;;;-147.86;100.00;54952.55;105780;1257;60430;-56
2024/01/26 01:21:15;;;;;;;11.80;7.40;;;;;;;-147.86;100.00;54665.08;105790;1253;72564;-57
2024/01/26 01:23:42;;;;;;;11.60;7.50;;;;;;;-147.86;100.00;54859.88;105750;1253;62803;-59
2024/01/26 01:26:10;;;;;;;9.40;6.70;;;;;;;-147.86;100.00;54874.01;105779;1253;71660;-57
2024/01/26 01:28:38;;;;;;;10.00;7.20;;;;;;;-147.86;100.00;54836.32;105751;1259;60456;-58
2024/01/26 01:31:07;;;;;;;11.40;8.00;;;;;;;-147.86;100.00;54862.23;105821;1259;60359;-58
2024/01/26 01:33:34;;;;;;;8.20;7.20;;;;;;;-147.86;100.00;54500.93;105746;1258;72878;-58
2024/01/26 01:36:03;;;;;;;10.60;6.50;;;;;;;-147.86;100.00;54428.67;105789;1259;63133;-59
2024/01/26 01:38:31;;;;;;;12.10;7.50;;;;;;;-147.86;100.00;54496.22;105774;1257;72636;-58
2024/01/26 01:40:58;;;;;;;12.80;7.20;;;;;;;-147.86;100.00;54739.30;105730;1259;60582;-58
2024/01/26 01:43:26;;;;;;;14.30;7.50;;;;;;;-147.86;100.00;54566.51;105770;1255;60482;-57
2024/01/26 01:45:54;;;;;;;10.50;7.30;;;;;;;-147.86;100.00;55222.00;105726;1257;72487;-57
2024/01/26 01:48:23;;;;;;;12.40;7.10;;;;;;;-147.86;100.00;55411.30;105768;1253;63612;-58
2024/01/26 01:50:51;;;;;;;9.20;6.70;;;;;;;-147.86;100.00;55703.95;105797;1253;71444;-58
2024/01/26 01:53:19;;;;;;;11.90;7.20;;;;;;;-147.86;100.00;55117.51;105687;1255;60526;-58
2024/01/26 01:55:47;;;;;;;9.80;7.60;;;;;;;-147.86;100.00;55187.43;105657;1258;60356;-57
2024/01/26 01:58:16;;;;;;;10.10;7.30;;;;;;;-147.86;100.00;55036.61;105674;1258;72887;-56
2024/01/26 02:00:46;;;;;;;10.30;6.60;;;;;;;-147.86;100.00;54780.94;105806;1259;63286;-57
2024/01/26 02:24:30;;;;;;;8.90;6.70;;;;;;;-147.86;100.00;71884.25;102712;1291;601240;-56
2024/01/26 02:26:57;;;;;;;9.50;7.10;;;;;;;-147.86;100.00;58974.31;104856;1266;59685;-57
2024/01/26 02:29:25;;;;;;;9.90;6.70;;;;;;;-147.86;100.00;58135.83;104855;1270;59342;-56
2024/01/26 02:31:53;;;;;;;9.60;6.80;;;;;;;-147.86;100.00;57578.52;104852;1270;72234;-55
2024/01/26 02:34:21;;;;;;;9.30;6.80;;;;;;;-147.86;100.00;57372.98;104915;1264;64447;-56
2024/01/26 02:36:49;;;;;;;10.10;6.90;;;;;;;-147.86;100.00;57214.22;104846;1266;71382;-57
2024/01/26 02:39:17;;;;;;;8.10;6.40;;;;;;;-147.86;100.00;56904.18;105077;1265;208179;-55
2024/01/26 02:41:44;;;;;;;9.30;6.60;;;;;;;-147.86;100.00;56752.12;105098;1264;60091;-58
2024/01/26 02:44:12;;;;;;;9.30;6.80;;;;;;;-147.86;100.00;56590.63;105142;1264;70951;-58
2024/01/26 02:46:41;;;;;;;9.20;6.70;;;;;;;-147.86;100.00;56498.30;105065;1264;63181;-58
2024/01/26 02:49:09;;;;;;;7.80;6.10;;;;;;;-147.86;100.00;56197.36;105069;1266;72609;-58
2024/01/26 02:51:37;;;;;;;10.20;7.10;;;;;;;-147.86;100.00;56240.18;105011;1268;59695;-59
2024/01/26 02:54:04;;;;;;;12.70;7.10;;;;;;;-147.86;100.00;56661.76;105049;1264;59561;-59
2024/01/26 02:56:32;;;;;;;9.00;6.40;;;;;;;-147.86;100.00;57020.49;105077;1264;71865;-58
2024/01/26 02:59:00;;;;;;;10.30;6.60;;;;;;;-147.86;100.00;57090.83;105085;1264;63525;-59
2024/01/26 03:01:28;;;;;;;10.20;7.10;;;;;;;-147.86;100.00;57112.84;105039;1266;71208;-58
2024/01/26 03:03:56;;;;;;;8.80;6.30;;;;;;;-147.86;100.00;57076.69;105045;1266;59763;-57
2024/01/26 03:06:24;;;;;;;9.30;6.40;;;;;;;-147.86;100.00;56868.82;105069;1268;59723;-58
2024/01/26 03:08:51;;;;;;;12.90;6.60;;;;;;;-147.86;100.00;56558.41;105065;1264;72942;-57
2024/01/26 03:11:21;;;;;;;8.20;6.50;;;;;;;-147.86;100.00;56480.62;105048;1264;63118;-58
2024/01/26 03:13:48;;;;;;;7.60;6.60;;;;;;;-147.86;100.00;56532.09;105065;1268;72640;-57
2024/01/26 03:16:16;;;;;;;8.70;6.60;;;;;;;-147.86;100.00;56376.11;105081;1264;59901;-57
2024/01/26 03:18:44;;;;;;;6.30;5.40;;;;;;;-147.86;100.00;55996.21;105035;1264;60135;-58
2024/01/26 03:21:12;;;;;;;9.20;5.80;;;;;;;-147.86;100.00;56347.04;105230;1261;70795;-59
2024/01/26 03:23:39;;;;;;;8.10;6.00;;;;;;;-147.86;100.00;56618.14;105192;1261;63172;-58
2024/01/26 03:26:07;;;;;;;10.60;6.20;;;;;;;-147.86;100.00;56783.95;105194;1265;71417;-60
2024/01/26 03:28:35;;;;;;;7.10;5.90;;;;;;;-147.86;100.00;56818.52;105194;1265;59772;-59
2024/01/26 03:31:04;;;;;;;6.40;5.20;;;;;;;-147.86;100.00;56984.73;105168;1265;59977;-58
2024/01/26 03:33:31;;;;;;;7.20;5.60;;;;;;;-147.86;100.00;56656.64;105229;1265;73044;-57
2024/01/26 03:35:59;;;;;;;5.90;5.20;;;;;;;-147.86;100.00;57010.67;105229;1261;63075;-58
2024/01/26 03:38:27;;;;;;;6.30;5.00;;;;;;;-147.86;100.00;56623.64;105165;1263;71398;-56
2024/01/26 03:40:55;;;;;;;9.30;5.80;;;;;;;-147.86;100.00;56569.81;105181;1263;59773;-59
2024/01/26 03:43:22;;;;;;;5.80;4.80;;;;;;;-147.86;100.00;56787.88;105196;1261;59227;-58
2024/01/26 03:45:50;;;;;;;7.40;5.20;;;;;;;-147.86;100.00;56461.76;105190;1261;72443;-56
2024/01/26 03:48:18;;;;;;;8.50;5.20;;;;;;;-147.86;100.00;56179.68;105211;1260;64466;-58
2024/01/26 03:50:46;;;;;;;6.20;5.50;;;;;;;-147.86;100.00;55915.29;105156;1263;71441;-56
2024/01/26 03:53:14;;;;;;;7.70;5.50;;;;;;;-147.86;100.00;56275.15;105220;1262;59766;-56
2024/01/26 03:55:43;;;;;;;7.10;5.80;;;;;;;-147.86;100.00;56663.32;105183;1260;59639;-57
2024/01/26 03:58:10;;;;;;;8.80;5.70;;;;;;;-147.86;100.00;57111.27;105277;1261;73029;-56
2024/01/26 04:00:38;;;;;;;7.80;5.10;;;;;;;-147.86;100.00;57232.29;105157;1260;63195;-58
2024/01/26 04:03:06;;;;;;;9.50;5.90;;;;;;;-147.86;100.00;57143.88;105203;1265;72615;-57
2024/01/26 04:05:34;;;;;;;7.20;5.40;;;;;;;-147.86;100.00;56834.63;105660;1258;59766;-58
2024/01/26 04:08:02;;;;;;;8.20;5.10;;;;;;;-147.86;100.00;56591.02;105704;1257;59561;-58
2024/01/26 04:10:30;;;;;;;6.60;5.50;;;;;;;-147.86;100.00;56981.99;105724;1255;73094;-59
2024/01/26 04:12:58;;;;;;;6.60;5.20;;;;;;;-147.86;100.00;57349.41;105777;1253;62850;-59
2024/01/26 04:15:27;;;;;;;7.80;5.50;;;;;;;-147.86;100.00;57198.50;105675;1253;71406;-57
2024/01/26 04:17:56;;;;;;;9.50;5.70;;;;;;;-147.86;100.00;57606.81;105733;1253;60849;-58
2024/01/26 04:20:25;;;;;;;10.00;6.80;;;;;;;-147.86;100.00;58012.02;105725;1257;59602;-56
2024/01/26 04:22:53;;;;;;;10.20;5.50;;;;;;;-147.86;100.00;58269.88;105723;1253;71768;-56
2024/01/26 04:25:21;;;;;;;6.80;6.00;;;;;;;-147.86;100.00;58258.86;105663;1258;62274;-58
2024/01/26 04:27:50;;;;;;;10.60;6.20;;;;;;;-147.86;100.00;58568.62;105743;1254;70855;-59
2024/01/26 04:30:18;;;;;;;9.90;5.80;;;;;;;-147.86;100.00;58831.61;105667;1253;60027;-59
2024/01/26 04:32:46;;;;;;;10.70;6.10;;;;;;;-147.86;100.00;58588.66;105724;1253;59974;-58
2024/01/26 04:35:14;;;;;;;8.40;6.20;;;;;;;-147.86;100.00;58527.73;105672;1253;72249;-58
2024/01/26 04:37:42;;;;;;;7.80;6.30;;;;;;;-147.86;100.00;58702.66;105677;1254;63216;-58
2024/01/26 04:40:10;;;;;;;8.80;6.60;;;;;;;-147.86;100.00;58311.54;105703;1259;72863;-57
2024/01/26 04:42:38;;;;;;;10.70;6.60;;;;;;;-147.86;100.00;57720.39;105738;1253;59635;-59
2024/01/26 05:47:31;;;;;;;21.90;12.60;;;;;;;-147.86;100.00;67852.09;102739;1289;599903;-59
2024/01/26 05:49:59;;;;;;;25.60;13.60;;;;;;;-147.86;100.00;57147.02;104881;1266;59341;-58
2024/01/26 05:52:27;;;;;;;23.20;14.30;;;;;;;-147.86;100.00;57125.41;104833;1270;60433;-58
2024/01/26 05:54:55;;;;;;;25.90;15.20;;;;;;;-147.86;100.00;56873.54;104837;1266;70987;-58
2024/01/26 05:57:23;;;;;;;26.80;15.10;;;;;;;-147.86;100.00;56780.41;104844;1264;62532;-58
2024/01/26 05:59:50;;;;;;;27.90;13.90;;;;;;;-147.86;100.00;57408.75;104804;1266;71437;-56
2024/01/26 06:02:18;;;;;;;24.90;15.10;;;;;;;-147.86;100.00;57613.10;104988;1267;196448;-58
2024/01/26 06:04:46;;;;;;;34.20;17.40;;;;;;;-147.86;100.00;57944.43;105211;1267;59507;-55
2024/01/26 06:07:14;;;;;;;29.10;16.40;;;;;;;-147.86;100.00;57870.13;105159;1267;73311;-59
2024/01/26 06:09:41;;;;;;;31.60;17.50;;;;;;;-147.86;100.00;57898.82;105185;1263;62288;-59
2024/01/26 06:12:09;;;;;;;33.30;17.90;;;;;;;-147.86;100.00;58373.64;105147;1267;71741;-57
2024/01/26 06:14:37;;;;;;;29.60;16.80;;;;;;;-147.86;100.00;58295.42;105127;1263;59838;-58
2024/01/26 06:17:05;;;;;;;33.60;17.50;;;;;;;-147.86;100.00;58501.00;105159;1268;59568;-57
2024/01/26 06:19:33;;;;;;;35.70;18.90;;;;;;;-147.86;100.00;58552.89;105170;1264;73101;-58
2024/01/26 06:22:02;;;;;;;31.30;17.30;;;;;;;-147.86;100.00;58766.74;105204;1267;64316;-58
2024/01/26 06:24:29;;;;;;;29.30;16.40;;;;;;;-147.86;100.00;58959.38;105166;1263;71515;-57
2024/01/26 06:26:57;;;;;;;25.90;15.40;;;;;;;-147.86;100.00;58997.90;105135;1263;59881;-59
2024/01/26 06:29:25;;;;;;;29.90;15.90;;;;;;;-147.86;100.00;59056.09;105241;1265;59592;-57
2024/01/26 06:31:53;;;;;;;33.20;17.90;;;;;;;-147.86;100.00;58735.29;105189;1263;72048;-56
2024/01/26 06:34:21;;;;;;;29.00;18.00;;;;;;;-147.86;100.00;58772.64;105192;1263;63310;-58
2024/01/26 06:36:49;;;;;;;31.40;17.70;;;;;;;-147.86;100.00;58856.77;105160;1263;71899;-58
2024/01/26 06:39:16;;;;;;;34.10;18.60;;;;;;;-147.86;100.00;59378.09;105136;1267;60463;-55
2024/01/26 06:41:44;;;;;;;31.60;18.00;;;;;;;-147.86;100.00;59833.81;105191;1262;59972;-57
2024/01/26 06:44:14;;;;;;;35.80;19.20;;;;;;;-147.86;100.00;59788.20;105181;1267;72046;-56
2024/01/26 06:46:41;;;;;;;29.60;17.80;;;;;;;-147.86;100.00;59709.95;105106;1263;63144;-56
2024/01/26 06:49:10;;;;;;;35.80;19.60;;;;;;;-147.86;100.00;59707.98;105128;1266;71439;-54
2024/01/26 06:51:38;;;;;;;38.50;20.70;;;;;;;-147.86;100.00;59912.06;105148;1268;59691;-56
2024/01/26 06:54:06;;;;;;;37.70;20.30;;;;;;;-147.86;100.00;60088.63;105132;1263;59987;-57
2024/01/26 06:56:34;;;;;;;36.00;21.60;;;;;;;-147.86;100.00;60421.73;105144;1263;71786;-56
2024/01/26 06:59:01;;;;;;;29.40;19.50;;;;;;;-147.86;100.00;60588.88;105603;1260;64380;-57
2024/01/26 07:01:30;;;;;;;33.50;19.50;;;;;;;-147.86;100.00;60631.74;105556;1261;71704;-56
2024/01/26 07:03:59;;;;;;;29.40;18.30;;;;;;;-147.86;100.00;60784.36;105612;1260;60408;-58
2024/01/26 07:06:27;;;;;;;32.00;19.70;;;;;;;-147.86;100.00;61078.96;105627;1261;59622;-57
2024/01/26 07:08:55;;;;;;;34.80;20.10;;;;;;;-147.86;100.00;61481.38;105625;1255;73105;-57
2024/01/26 07:11:24;;;;;;;31.00;18.80;;;;;;;-147.86;100.00;61728.43;105585;1259;63267;-56
2024/01/26 07:13:52;;;;;;;29.40;19.00;;;;;;;-147.86;100.00;61650.14;105618;1261;72727;-55
2024/01/26 07:16:21;;;;;;;30.30;19.40;;;;;;;-147.86;100.00;61485.31;105568;1256;60833;-56
2024/01/26 07:18:48;;;;;;;34.30;20.30;;;;;;;-147.86;100.00;62238.74;105593;1260;59642;-56
2024/01/26 07:21:19;;;;;;;29.70;19.20;;;;;;;-147.86;100.00;62409.88;105580;1257;71785;-57
2024/01/26 07:23:49;;;;;;;35.40;21.10;;;;;;;-147.86;100.00;62253.68;105614;1260;64557;-57
2024/01/26 07:26:19;;;;;;;36.80;19.60;;;;;;;-147.86;100.00;62171.05;105607;1256;72649;-56
2024/01/26 07:28:50;;;;;;;35.50;19.80;;;;;;;-147.86;100.00;62530.68;105603;1260;59769;-57
2024/01/26 07:31:18;;;;;;;43.10;19.20;;;;;;;-147.86;100.00;62652.27;105605;1256;59587;-57
2024/01/26 07:33:48;;;;;;;27.10;17.60;;;;;;;-147.86;100.00;62923.41;105585;1260;73074;-58
2024/01/26 07:36:16;;;;;;;27.30;17.90;;;;;;;-147.86;100.00;62790.40;105663;1256;63238;-56
2024/01/26 07:38:44;;;;;;;27.50;17.70;;;;;;;-147.86;100.00;63019.43;105598;1257;71533;-57
2024/01/26 07:41:12;;;;;;;26.70;16.70;;;;;;;-147.86;100.00;63281.94;105676;1257;59692;-57
2024/01/26 07:43:39;;;;;;;25.90;15.60;;;;;;;-147.86;100.00;63187.87;105581;1262;59732;-57
2024/01/26 07:46:07;;;;;;;26.60;15.30;;;;;;;-147.86;100.00;63142.22;105602;1256;71885;-56
2024/01/26 07:48:35;;;;;;;25.20;16.20;;;;;;;-147.86;100.00;63532.25;105562;1260;63347;-56
2024/01/26 07:51:03;;;;;;;24.70;16.00;;;;;;;-147.86;100.00;63577.51;105628;1256;71408;-58
2024/01/26 07:53:32;;;;;;;30.40;17.30;;;;;;;-147.86;100.00;63957.35;105584;1262;61005;-58
2024/01/26 07:56:00;;;;;;;24.20;15.70;;;;;;;-147.86;100.00;63798.71;105617;1261;59551;-56
2024/01/26 07:58:31;;;;;;;25.10;15.60;;;;;;;-147.86;100.00;63719.61;105615;1261;73026;-57
2024/01/26 08:01:00;;;;;;;24.00;15.70;;;;;;;-147.86;100.00;64203.38;105598;1256;63598;-58
2024/01/26 08:03:29;;;;;;;26.80;16.20;;;;;;;-147.86;100.00;64227.39;105641;1260;72605;-57
2024/01/26 08:05:58;;;;;;;27.30;16.90;;;;;;;-147.86;100.00;64117.56;105595;1261;59704;-57
2024/01/26 08:08:26;;;;;;;26.50;16.50;;;;;;;-147.86;100.00;64086.46;105687;1260;59666;-55
2024/01/26 08:10:54;;;;;;;25.60;15.20;;;;;;;-147.86;100.00;63946.32;105615;1260;71756;-58
2024/01/26 08:13:22;;;;;;;25.10;15.70;;;;;;;-147.86;100.00;63797.53;105616;1256;63255;-57
2024/01/26 08:15:50;;;;;;;25.20;15.10;;;;;;;-147.86;100.00;63968.77;105581;1256;70421;-59
2024/01/26 08:18:18;;;;;;;23.00;14.40;;;;;;;-147.86;100.00;64402.57;105606;1260;61708;-56
2024/01/26 08:20:46;;;;;;;24.50;16.20;;;;;;;-147.86;100.00;64908.11;105581;1261;59574;-57
2024/01/26 08:23:14;;;;;;;26.20;16.80;;;;;;;-147.86;100.00;65345.14;105602;1256;71744;-56
2024/01/26 08:25:43;;;;;;;27.30;17.00;;;;;;;-147.86;100.00;65295.93;105627;1257;63096;-57
2024/01/26 08:28:11;;;;;;;26.50;15.30;;;;;;;-147.86;100.00;65818.48;105589;1257;72620;-58
2024/01/26 08:30:41;;;;;;;27.20;15.20;;;;;;;-147.86;100.00;65426.26;105578;1257;60449;-58
2024/01/26 08:33:10;;;;;;;24.60;16.50;;;;;;;-147.86;100.00;65663.73;105611;1257;59791;-59
2024/01/26 08:35:38;;;;;;;27.30;17.20;;;;;;;-147.86;100.00;66189.09;105627;1255;71772;-59
2024/01/26 08:38:06;;;;;;;25.40;17.80;;;;;;;-147.86;100.00;66735.02;105614;1257;63075;-58
2024/01/26 08:40:34;;;;;;;27.40;16.90;;;;;;;-147.86;100.00;66678.29;105602;1257;70851;-60
2024/01/26 08:43:02;;;;;;;24.50;15.30;;;;;;;-147.86;100.00;65997.67;105597;1257;59747;-60
2024/01/26 08:45:30;;;;;;;24.80;15.60;;;;;;;-147.86;100.00;66169.40;105652;1256;60104;-60
2024/01/26 08:47:59;;;;;;;19.90;14.90;;;;;;;-147.86;100.00;65941.36;105587;1257;73016;-60
2024/01/26 08:50:26;;;;;;;28.30;16.60;;;;;;;-147.86;100.00;66535.71;105598;1257;63132;-60
2024/01/26 08:52:55;;;;;;;28.20;15.20;;;;;;;-147.86;100.00;66847.27;105682;1257;70529;-59
2024/01/26 08:55:23;;;;;;;24.90;14.80;;;;;;;-147.86;100.00;66439.19;105555;1262;62869;-59
2024/01/26 08:57:51;;;;;;;26.70;13.80;;;;;;;-147.86;100.00;65909.85;105625;1262;59555;-60
2024/01/26 09:00:19;;;;;;;18.90;13.50;;;;;;;-147.86;100.00;65926.40;105605;1258;72860;-60
2024/01/26 09:02:48;;;;;;;19.20;12.60;;;;;;;-147.86;100.00;66498.67;105668;1261;63105;-59
2024/01/26 09:05:16;;;;;;;21.60;13.80;;;;;;;-147.86;100.00;66837.42;105667;1257;72550;-58
2024/01/26 09:07:44;;;;;;;23.50;13.10;;;;;;;-147.86;100.00;66755.09;105576;1257;59657;-58
2024/01/26 09:10:12;;;;;;;19.60;12.50;;;;;;;-147.86;100.00;66399.80;105597;1260;59661;-55
2024/01/26 09:12:39;;;;;;;19.90;12.30;;;;;;;-147.86;100.00;66418.71;105557;1256;72953;-58
2024/01/26 09:15:08;;;;;;;18.10;11.70;;;;;;;-147.86;100.00;66883.91;105625;1257;63204;-57
2024/01/26 09:49:09;;;;;;;22.90;10.60;;;;;;;-147.86;100.00;75776.10;102726;1291;601598;-58
2024/01/26 09:51:38;;;;;;;20.20;11.00;;;;;;;-147.86;100.00;67411.81;104817;1266;61140;-59
2024/01/26 09:54:07;;;;;;;22.30;12.10;;;;;;;-147.86;100.00;67319.22;104804;1270;60269;-59
2024/01/26 09:56:37;;;;;;;22.80;10.80;;;;;;;-147.86;100.00;67429.14;104847;1270;74617;-59
2024/01/26 09:59:07;;;;;;;21.60;10.90;;;;;;;-147.86;100.00;67408.25;104887;1264;63597;-59
2024/01/26 10:01:35;;;;;;;19.50;11.70;;;;;;;-147.86;100.00;67541.83;104857;1264;74853;-58
2024/01/26 10:04:02;;;;;;;20.10;12.00;;;;;;;-147.86;100.00;68684.16;104544;1263;59813;-59
2024/01/26 10:06:31;;;;;;;22.60;12.00;;;;;;;-147.86;100.00;69027.43;105083;1263;60883;-58
2024/01/26 10:08:59;;;;;;;20.60;11.70;;;;;;;-147.86;100.00;68543.45;104832;1263;72628;-56
2024/01/26 10:11:27;;;;;;;21.30;12.00;;;;;;;-147.86;100.00;68688.09;105222;1261;63752;-59
2024/01/26 10:13:55;;;;;;;15.70;9.80;;;;;;;-147.86;100.00;68524.15;105077;1263;73024;-57
2024/01/26 10:16:23;;;;;;;15.20;10.70;;;;;;;-147.86;100.00;68957.67;105060;1268;63792;-57
2024/01/26 10:18:51;;;;;;;20.80;10.90;;;;;;;-147.86;100.00;69138.95;105159;1263;59879;-58
2024/01/26 10:21:22;;;;;;;18.30;10.70;;;;;;;-147.86;100.00;69060.52;104881;1269;73365;-57
2024/01/26 10:23:51;;;;;;;19.90;11.10;;;;;;;-147.86;100.00;68589.56;105171;1268;66394;-60
2024/01/26 10:26:19;;;;;;;16.30;9.80;;;;;;;-147.86;100.00;68883.96;104814;1264;71435;-58
2024/01/26 10:28:48;;;;;;;14.90;9.30;;;;;;;-147.86;100.00;69664.02;104874;1270;60707;-58
2024/01/26 10:31:16;;;;;;;15.00;8.70;;;;;;;-147.86;100.00;69803.16;105091;1267;59676;-59
2024/01/26 10:33:45;;;;;;;15.50;9.70;;;;;;;-147.86;100.00;69781.48;105141;1262;72837;-59
2024/01/26 10:36:14;;;;;;;16.80;9.00;;;;;;;-147.86;100.00;69438.92;105097;1266;64315;-58
2024/01/26 10:38:42;;;;;;;13.50;8.10;;;;;;;-147.86;100.00;69973.88;104842;1261;73950;-58
2024/01/26 10:41:12;;;;;;;12.30;8.40;;;;;;;-147.86;100.00;70264.41;104840;1270;61386;-58
2024/01/26 10:43:40;;;;;;;13.30;8.50;;;;;;;-147.86;100.00;70679.20;105142;1263;62238;-59
2024/01/26 10:46:08;;;;;;;14.80;9.00;;;;;;;-147.86;100.00;70950.47;105616;1257;72898;-59
2024/01/26 11:49:19;;;;;;;17.50;8.90;;;;;;;-147.86;100.00;76108.60;102651;1291;600320;-60
2024/01/26 11:51:48;;;;;;;13.80;8.30;;;;;;;-147.86;100.00;67822.35;104861;1270;61648;-58
2024/01/26 11:54:16;;;;;;;10.40;7.60;;;;;;;-147.86;100.00;69042.82;104910;1267;61118;-58
2024/01/26 11:56:43;;;;;;;12.50;7.90;;;;;;;-147.86;100.00;69094.42;104929;1271;72543;-57
2024/01/26 11:59:12;;;;;;;12.00;8.50;;;;;;;-147.86;100.00;68617.55;104809;1273;64646;-58
2024/01/26 12:01:40;;;;;;;11.70;8.40;;;;;;;-147.86;100.00;69049.51;104960;1269;74987;-59
2024/01/26 12:04:08;;;;;;;13.30;8.10;;;;;;;-147.86;100.00;69307.27;104987;1269;225330;-59
2024/01/26 12:06:36;;;;;;;15.00;8.20;;;;;;;-147.86;100.00;70315.28;105192;1266;60171;-57
2024/01/26 12:09:04;;;;;;;14.40;9.10;;;;;;;-147.86;100.00;69725.89;105050;1269;72111;-56
2024/01/26 12:11:32;;;;;;;15.60;10.30;;;;;;;-147.86;100.00;69527.61;105122;1269;64798;-55
2024/01/26 12:14:00;;;;;;;19.30;9.60;;;;;;;-147.86;100.00;69281.26;105101;1268;72461;-58
2024/01/26 12:16:31;;;;;;;14.20;9.00;;;;;;;-147.86;100.00;69688.84;104941;1263;60704;-58
2024/01/26 12:19:01;;;;;;;12.60;9.00;;;;;;;-147.86;100.00;69867.02;104935;1263;60025;-59
2024/01/26 12:21:29;;;;;;;18.00;11.50;;;;;;;-147.86;100.00;69522.88;105178;1263;72944;-58
2024/01/26 12:23:57;;;;;;;19.00;11.60;;;;;;;-147.86;100.00;69233.95;105200;1267;66988;-59
2024/01/26 12:26:25;;;;;;;13.60;10.60;;;;;;;-147.86;100.00;68801.59;105158;1275;73173;-60
2024/01/26 12:28:53;;;;;;;15.90;10.50;;;;;;;-147.86;100.00;69101.93;105059;1263;60231;-59
2024/01/26 12:31:21;;;;;;;15.00;10.20;;;;;;;-147.86;100.00;68757.06;105145;1270;60464;-60
2024/01/26 12:33:49;;;;;;;14.10;10.50;;;;;;;-147.86;100.00;68968.70;105190;1262;73815;-57
2024/01/26 12:36:17;;;;;;;17.20;10.20;;;;;;;-147.86;100.00;69246.17;105113;1267;64443;-59
2024/01/26 12:38:46;;;;;;;13.20;10.50;;;;;;;-147.86;100.00;68908.01;105436;1257;73246;-61
2024/01/26 12:41:14;;;;;;;14.50;9.50;;;;;;;-147.86;100.00;69323.04;105411;1261;60050;-60
2024/01/26 12:43:42;;;;;;;16.00;9.20;;;;;;;-147.86;100.00;68986.45;105557;1261;59692;-60
2024/01/26 12:46:11;;;;;;;12.70;9.10;;;;;;;-147.86;100.00;69259.19;105579;1264;73408;-61
2024/01/26 12:48:38;;;;;;;13.80;9.70;;;;;;;-147.86;100.00;69313.18;105533;1258;63195;-60
2024/01/26 12:51:06;;;;;;;12.30;9.40;;;;;;;-147.86;100.00;69123.59;105504;1257;72486;-60
2024/01/26 12:53:34;;;;;;;12.80;8.70;;;;;;;-147.86;100.00;69503.18;105510;1262;62946;-59
2024/01/26 12:56:03;;;;;;;13.00;8.70;;;;;;;-147.86;100.00;69369.96;105490;1263;62257;-59
2024/01/26 12:58:31;;;;;;;10.70;8.90;;;;;;;-147.86;100.00;69776.35;105530;1264;73367;-60
2024/01/26 13:00:59;;;;;;;13.50;8.30;;;;;;;-147.86;100.00;69958.09;105460;1263;64311;-59
2024/01/26 13:03:27;;;;;;;13.30;9.00;;;;;;;-147.86;100.00;69339.99;105398;1257;73060;-58
2024/01/26 13:05:55;;;;;;;12.10;8.20;;;;;;;-147.86;100.00;69475.19;105488;1264;60727;-60
2024/01/26 13:08:24;;;;;;;11.50;8.20;;;;;;;-147.86;100.00;69421.20;105434;1257;59657;-58
2024/01/26 13:10:52;;;;;;;11.10;8.20;;;;;;;-147.86;100.00;69631.67;105537;1257;73595;-60
2024/01/26 13:13:20;;;;;;;11.50;7.70;;;;;;;-147.86;100.00;69605.67;105500;1258;65631;-60
2024/01/26 13:15:48;;;;;;;8.90;7.00;;;;;;;-147.86;100.00;69483.07;105491;1263;72868;-60
2024/01/26 13:18:16;;;;;;;9.90;6.50;;;;;;;-147.86;100.00;69349.05;105421;1263;63025;-59
2024/01/26 13:20:55;;;;;;;6.40;5.80;;;;;;;-147.86;100.00;68888.70;105510;1262;61921;-60
2024/01/26 13:23:24;;;;;;;8.20;6.10;;;;;;;-147.86;100.00;69056.59;105518;1263;72360;-59
2024/01/26 13:25:54;;;;;;;9.40;6.70;;;;;;;-147.86;100.00;68473.70;105425;1263;64683;-57
2024/01/26 13:28:24;;;;;;;10.50;6.30;;;;;;;-147.86;100.00;68470.55;105519;1259;73949;-62
2024/01/26 13:30:53;;;;;;;8.40;6.70;;;;;;;-147.86;100.00;68708.20;105474;1257;61158;-60
2024/01/26 13:33:21;;;;;;;7.80;6.10;;;;;;;-147.86;100.00;69245.01;105278;1258;59829;-61
2024/01/26 13:35:51;;;;;;;7.40;5.90;;;;;;;-147.86;100.00;68675.09;105452;1257;73754;-61
2024/01/26 13:38:18;;;;;;;8.30;6.00;;;;;;;-147.86;100.00;68256.18;105474;1263;66817;-62
2024/01/26 13:40:50;;;;;;;8.00;5.60;;;;;;;-147.86;100.00;68198.65;105448;1263;72131;-60
2024/01/26 13:43:19;;;;;;;5.50;5.00;;;;;;;-147.86;100.00;68247.52;105442;1263;63122;-60
2024/01/26 13:45:47;;;;;;;8.30;5.40;;;;;;;-147.86;100.00;68247.52;105425;1257;59954;-61
2024/01/26 13:48:15;;;;;;;9.00;6.00;;;;;;;-147.86;100.00;68098.17;105446;1258;74275;-59
2024/01/26 13:50:45;;;;;;;13.40;5.60;;;;;;;-147.86;100.00;67879.48;105455;1257;64970;-58
2024/01/26 13:53:13;;;;;;;5.40;4.90;;;;;;;-147.86;100.00;67228.61;105461;1262;72086;-60